createdAt,value
2022-10-24T00:02:34.246Z,7.47
2022-10-24T00:05:24.093Z,19.27
2022-10-24T00:08:12.611Z,17.20
2022-10-24T00:11:01.007Z,13.10
2022-10-24T00:13:50.314Z,8.40
2022-10-24T00:16:38.773Z,14.87
2022-10-24T00:19:27.344Z,9.70
2022-10-24T00:22:17.128Z,11.33
2022-10-24T00:25:06.271Z,11.77
2022-10-24T00:27:54.676Z,6.90
2022-10-24T00:30:43.183Z,9.00
2022-10-24T00:33:31.773Z,8.00
2022-10-24T00:36:22.397Z,11.77
2022-10-24T00:39:13.448Z,7.93
2022-10-24T00:42:01.850Z,13.50
2022-10-24T00:44:52.272Z,7.33
2022-10-24T00:47:40.677Z,10.47
2022-10-24T00:50:29.833Z,13.80
2022-10-24T00:53:18.483Z,14.30
2022-10-24T00:56:08.933Z,9.20
2022-10-24T00:58:58.651Z,9.90
2022-10-24T01:01:47.494Z,12.23
2022-10-24T01:04:36.070Z,11.90
2022-10-24T01:07:39.174Z,8.23
2022-10-24T01:10:39.569Z,9.40
2022-10-24T01:13:36.174Z,11.77
2022-10-24T01:16:29.286Z,11.20
2022-10-24T01:19:38.727Z,11.90
2022-10-24T01:22:30.736Z,7.63
2022-10-24T01:25:24.560Z,9.73
2022-10-24T01:28:14.421Z,7.40
2022-10-24T01:31:07.276Z,9.77
2022-10-24T01:34:00.308Z,12.63
2022-10-24T01:36:52.424Z,13.70
2022-10-24T01:39:44.770Z,12.70
2022-10-24T01:42:34.064Z,12.50
2022-10-24T01:45:26.533Z,17.70
2022-10-24T01:48:19.870Z,8.50
2022-10-24T01:51:09.390Z,9.57
2022-10-24T01:53:58.105Z,6.57
2022-10-24T01:56:46.588Z,9.57
2022-10-24T01:59:43.832Z,10.40
2022-10-24T02:02:35.991Z,7.70
2022-10-24T02:05:29.924Z,7.70
2022-10-24T02:08:20.652Z,11.73
2022-10-24T02:11:10.051Z,7.50
2022-10-24T02:14:02.612Z,7.20
2022-10-24T02:16:51.144Z,12.30
2022-10-24T02:19:39.585Z,16.23
2022-10-24T02:22:31.830Z,9.93
2022-10-24T02:25:25.866Z,8.53
2022-10-24T02:28:17.457Z,8.73
2022-10-24T02:31:10.119Z,10.60
2022-10-24T02:33:58.728Z,8.93
2022-10-24T02:36:49.120Z,13.17
2022-10-24T02:39:40.080Z,16.27
2022-10-24T02:45:20.212Z,9.13
2022-10-24T02:48:11.262Z,13.07
2022-10-24T02:51:00.051Z,10.50
2022-10-24T02:53:48.654Z,11.20
2022-10-24T02:56:40.439Z,9.57
2022-10-24T02:59:28.925Z,7.53
2022-10-24T03:02:17.459Z,10.67
2022-10-24T03:05:06.470Z,11.40
2022-10-24T03:07:54.901Z,7.80
2022-10-24T03:10:43.344Z,8.50
2022-10-24T03:13:33.179Z,8.43
2022-10-24T03:16:21.626Z,11.20
2022-10-24T03:19:10.044Z,10.20
2022-10-24T03:21:58.466Z,9.73
2022-10-24T03:24:55.148Z,8.23
2022-10-24T03:27:44.102Z,17.83
2022-10-24T03:30:34.142Z,8.47
2022-10-24T03:33:22.777Z,9.20
2022-10-24T03:36:11.207Z,11.40
2022-10-24T03:38:59.624Z,17.50
2022-10-24T03:41:48.033Z,5.83
2022-10-24T03:44:36.442Z,6.23
2022-10-24T03:47:26.215Z,9.93
2022-10-24T03:50:14.644Z,5.63
2022-10-24T03:53:03.079Z,7.60
2022-10-24T03:55:51.783Z,8.47
2022-10-24T03:58:40.249Z,5.77
2022-10-24T04:01:28.929Z,11.47
2022-10-24T04:04:18.833Z,9.67
2022-10-24T04:07:07.266Z,9.63
2022-10-24T04:09:55.648Z,12.73
2022-10-24T04:12:44.071Z,6.30
2022-10-24T04:15:32.484Z,9.53
2022-10-24T04:18:20.894Z,6.60
2022-10-24T04:21:10.701Z,12.33
2022-10-24T04:23:59.538Z,7.43
2022-10-24T04:26:47.974Z,12.03
2022-10-24T04:29:36.543Z,5.80
2022-10-24T04:32:24.964Z,7.70
2022-10-24T04:35:14.105Z,16.53
2022-10-24T04:38:03.944Z,7.07
2022-10-24T04:40:53.492Z,8.60
2022-10-24T04:43:41.898Z,8.20
2022-10-24T04:46:30.401Z,13.00
2022-10-24T04:49:18.945Z,10.90
2022-10-24T04:52:07.449Z,11.00
2022-10-24T04:54:57.218Z,8.67
2022-10-24T04:57:45.929Z,10.73
2022-10-24T05:00:34.464Z,9.63
2022-10-24T05:03:23.243Z,9.67
2022-10-24T05:06:11.742Z,8.27
2022-10-24T05:09:00.175Z,9.30
2022-10-24T05:11:49.907Z,14.13
2022-10-24T05:14:38.605Z,9.00
2022-10-24T05:17:27.067Z,6.93
2022-10-24T05:20:16.687Z,14.60
2022-10-24T05:23:05.128Z,11.53
2022-10-24T05:25:53.580Z,11.07
2022-10-24T05:28:43.329Z,8.90
2022-10-24T05:34:25.272Z,12.43
2022-10-24T05:37:13.833Z,8.10
2022-10-24T05:40:02.243Z,11.13
2022-10-24T05:42:52.180Z,9.43
2022-10-24T05:45:41.989Z,8.50
2022-10-24T05:48:30.435Z,8.77
2022-10-24T05:51:18.876Z,14.73
2022-10-24T05:54:07.340Z,12.00
2022-10-24T05:56:55.780Z,12.37
2022-10-24T05:59:44.212Z,11.20
2022-10-24T06:02:34.109Z,18.77
2022-10-24T06:05:22.749Z,15.63
2022-10-24T06:08:11.682Z,14.37
2022-10-24T06:11:00.115Z,15.00
2022-10-24T06:13:48.532Z,17.50
2022-10-24T06:16:37.359Z,18.23
2022-10-24T06:19:27.116Z,16.03
2022-10-24T06:22:15.627Z,13.73
2022-10-24T06:25:04.014Z,10.20
2022-10-24T06:27:52.594Z,20.33
2022-10-24T06:30:42.368Z,11.20
2022-10-24T06:33:30.920Z,13.63
2022-10-24T06:36:21.027Z,18.10
2022-10-24T06:39:09.488Z,15.03
2022-10-24T06:41:57.958Z,18.23
2022-10-24T06:44:46.380Z,12.27
2022-10-24T06:47:34.901Z,10.30
2022-10-24T06:50:23.348Z,13.17
2022-10-24T06:53:13.176Z,9.90
2022-10-24T06:56:01.924Z,8.00
2022-10-24T06:58:50.380Z,20.70
2022-10-24T07:01:38.924Z,11.47
2022-10-24T07:04:28.353Z,15.70
2022-10-24T07:07:17.784Z,15.30
2022-10-24T07:10:09.076Z,12.60
2022-10-24T07:12:57.507Z,11.60
2022-10-24T07:15:45.941Z,17.40
2022-10-24T07:18:34.593Z,12.20
2022-10-24T07:21:25.022Z,9.20
2022-10-24T07:24:13.656Z,6.97
2022-10-24T07:27:03.444Z,11.10
2022-10-24T07:29:52.365Z,5.50
2022-10-24T07:32:40.820Z,9.23
2022-10-24T07:35:29.312Z,11.33
2022-10-24T07:38:18.886Z,10.33
2022-10-24T07:41:07.598Z,11.27
2022-10-24T07:43:58.200Z,6.90
2022-10-24T07:46:46.742Z,11.27
2022-10-24T07:49:35.327Z,12.93
2022-10-24T07:52:23.771Z,6.37
2022-10-24T07:55:12.304Z,12.33
2022-10-24T07:58:00.729Z,17.03
2022-10-24T08:00:50.532Z,6.47
2022-10-24T08:03:39.064Z,18.93
2022-10-24T08:06:30.800Z,7.03
2022-10-24T08:09:20.335Z,6.50
2022-10-24T08:12:08.959Z,7.77
2022-10-24T08:14:57.652Z,9.83
2022-10-24T08:17:47.518Z,5.20
2022-10-24T08:20:36.044Z,4.00
2022-10-24T08:23:25.451Z,7.43
2022-10-24T08:26:17.049Z,6.10
2022-10-24T08:29:10.770Z,7.80
2022-10-24T08:31:59.215Z,5.67
2022-10-24T08:34:49.046Z,7.23
2022-10-24T08:37:38.622Z,7.43
2022-10-24T08:40:27.171Z,5.27
2022-10-24T08:43:15.956Z,6.80
2022-10-24T08:46:11.880Z,7.83
2022-10-24T08:49:04.648Z,6.20
2022-10-24T08:51:57.487Z,5.47
2022-10-24T08:54:46.898Z,4.20
2022-10-24T08:57:35.608Z,5.70
2022-10-24T09:00:26.028Z,9.77
2022-10-24T09:03:31.282Z,5.17
2022-10-24T09:06:28.203Z,5.53
2022-10-24T09:09:22.515Z,3.27
2022-10-24T09:12:14.394Z,10.40
2022-10-24T09:15:02.851Z,4.40
2022-10-24T09:17:51.521Z,3.37
2022-10-24T09:20:39.965Z,4.77
2022-10-24T09:23:28.873Z,6.63
2022-10-24T09:26:25.659Z,6.80
2022-10-24T09:29:14.128Z,5.70
2022-10-24T09:32:03.214Z,4.67
2022-10-24T09:34:51.715Z,6.00
2022-10-24T09:37:44.311Z,3.33
2022-10-24T09:40:35.673Z,5.57
2022-10-24T09:43:35.382Z,6.60
2022-10-24T09:46:25.316Z,4.27
2022-10-24T09:49:22.456Z,10.30
2022-10-24T09:52:20.596Z,10.60
2022-10-24T09:55:18.097Z,6.30
2022-10-24T09:58:06.650Z,6.50
2022-10-24T10:01:04.804Z,5.47
2022-10-24T10:04:07.593Z,7.63
2022-10-24T10:06:57.553Z,5.03
2022-10-24T10:09:55.632Z,4.70
2022-10-24T10:12:46.730Z,8.37
2022-10-24T10:15:37.942Z,9.23
2022-10-24T10:18:34.006Z,12.53
2022-10-24T10:21:23.203Z,9.27
2022-10-24T10:24:25.383Z,6.23
2022-10-24T10:27:30.236Z,5.27
2022-10-24T10:30:22.410Z,10.40
2022-10-24T10:33:17.989Z,4.97
2022-10-24T10:36:12.757Z,6.97
2022-10-24T10:39:16.513Z,10.60
2022-10-24T10:42:09.124Z,5.33
2022-10-24T10:45:10.016Z,5.73
2022-10-24T10:48:08.570Z,4.53
2022-10-24T10:51:02.236Z,10.47
2022-10-24T10:54:00.607Z,8.53
2022-10-24T10:56:53.618Z,5.80
2022-10-24T10:59:49.064Z,4.67
2022-10-24T11:02:57.867Z,5.10
2022-10-24T11:05:54.616Z,4.83
2022-10-24T11:08:57.131Z,7.60
2022-10-24T11:11:49.958Z,6.33
2022-10-24T11:14:41.012Z,5.57
2022-10-24T11:17:33.500Z,8.07
2022-10-24T11:20:26.339Z,5.80
2022-10-24T11:23:19.647Z,8.07
2022-10-24T11:26:11.784Z,8.50
2022-10-24T11:29:05.216Z,8.20
2022-10-24T11:31:56.762Z,8.00
2022-10-24T11:34:50.551Z,9.03
2022-10-24T11:37:41.099Z,9.27
2022-10-24T11:40:31.082Z,6.00
2022-10-24T11:43:22.758Z,8.20
2022-10-24T11:46:15.657Z,9.10
2022-10-24T11:49:10.457Z,8.50
2022-10-24T11:52:05.456Z,7.00
2022-10-24T11:54:57.573Z,12.30
2022-10-24T11:57:47.804Z,6.07
2022-10-24T12:00:45.302Z,13.93
2022-10-24T12:03:57.599Z,5.50
2022-10-24T12:07:01.364Z,8.00
2022-10-24T12:10:05.530Z,7.00
2022-10-24T12:13:21.768Z,9.10
2022-10-24T12:16:15.096Z,6.50
2022-10-24T12:19:06.628Z,7.37
2022-10-24T12:21:56.298Z,8.37
2022-10-24T12:24:45.133Z,7.20
2022-10-24T12:27:37.270Z,7.00
2022-10-24T12:30:27.499Z,8.70
2022-10-24T12:33:26.633Z,6.50
2022-10-24T12:36:17.248Z,4.63
2022-10-24T12:39:05.952Z,7.57
2022-10-24T12:41:55.846Z,6.27
2022-10-24T12:44:47.325Z,6.00
2022-10-24T12:47:45.436Z,8.30
2022-10-24T12:50:58.691Z,6.30
2022-10-24T12:54:21.229Z,7.93
2022-10-24T12:57:23.882Z,8.70
2022-10-24T13:00:24.360Z,10.77
2022-10-24T13:03:17.581Z,5.37
2022-10-24T13:06:08.673Z,11.40
2022-10-24T13:09:12.689Z,5.50
2022-10-24T13:12:10.954Z,6.53
2022-10-24T13:15:15.357Z,12.10
2022-10-24T13:18:15.170Z,5.80
2022-10-24T13:21:16.528Z,6.50
2022-10-24T13:24:21.081Z,9.33
2022-10-24T13:27:24.983Z,10.30
2022-10-24T13:30:34.732Z,4.90
2022-10-24T13:33:41.504Z,10.30
2022-10-24T13:36:32.485Z,10.27
2022-10-24T13:39:25.008Z,6.20
2022-10-24T13:42:24.660Z,8.93
2022-10-24T13:45:26.249Z,10.30
2022-10-24T13:48:19.187Z,10.03
2022-10-24T13:51:14.001Z,8.23
2022-10-24T13:54:08.230Z,3.80
2022-10-24T13:57:01.266Z,7.87
2022-10-24T13:59:55.693Z,7.10
2022-10-24T14:02:44.537Z,3.80
2022-10-24T14:05:36.223Z,5.60
2022-10-24T14:08:27.587Z,4.13
2022-10-24T14:11:21.130Z,5.27
2022-10-24T14:14:27.488Z,5.90
2022-10-24T14:17:23.579Z,7.13
2022-10-24T14:20:22.063Z,4.00
2022-10-24T14:23:24.572Z,5.67
2022-10-24T14:26:16.620Z,7.77
2022-10-24T14:29:05.088Z,4.40
2022-10-24T14:31:57.867Z,6.77
2022-10-24T14:34:48.283Z,7.20
2022-10-24T14:37:37.712Z,5.07
2022-10-24T14:40:26.302Z,6.57
2022-10-24T14:43:16.959Z,9.73
2022-10-24T14:46:28.538Z,4.07
2022-10-24T14:49:23.242Z,4.93
2022-10-24T14:52:13.892Z,7.10
2022-10-24T14:55:04.675Z,4.60
2022-10-24T14:57:54.131Z,7.73
2022-10-24T15:00:42.651Z,3.93
2022-10-24T15:03:31.145Z,4.30
2022-10-24T15:06:24.963Z,5.63
2022-10-24T15:09:17.786Z,6.70
2022-10-24T15:12:13.474Z,5.00
2022-10-24T15:15:24.724Z,5.13
2022-10-24T15:18:19.947Z,5.60
2022-10-24T15:21:14.156Z,4.13
2022-10-24T15:24:04.512Z,6.60
2022-10-24T15:26:53.126Z,4.03
2022-10-24T15:29:41.829Z,5.33
2022-10-24T15:32:30.540Z,3.47
2022-10-24T15:35:19.399Z,4.50
2022-10-24T15:38:14.941Z,10.07
2022-10-24T15:41:04.846Z,5.57
2022-10-24T15:43:53.360Z,4.20
2022-10-24T15:46:41.800Z,2.90
2022-10-24T15:49:31.418Z,4.37
2022-10-24T15:52:19.948Z,4.90
2022-10-24T15:55:12.837Z,3.10
2022-10-24T15:58:03.125Z,6.90
2022-10-24T16:00:51.752Z,5.37
2022-10-24T16:03:40.224Z,6.70
2022-10-24T16:06:29.282Z,7.30
2022-10-24T16:09:19.977Z,6.83
2022-10-24T16:12:08.814Z,4.50
2022-10-24T16:14:58.654Z,6.47
2022-10-24T16:17:47.347Z,6.03
2022-10-24T16:20:36.043Z,6.87
2022-10-24T16:23:24.879Z,5.77
2022-10-24T16:26:13.320Z,6.07
2022-10-24T16:29:01.820Z,8.00
2022-10-24T16:31:51.872Z,15.50
2022-10-24T16:34:40.329Z,11.27
2022-10-24T16:37:28.808Z,7.13
2022-10-24T16:40:17.956Z,10.17
2022-10-24T16:43:06.731Z,10.50
2022-10-24T16:45:59.227Z,6.10
2022-10-24T16:48:49.228Z,6.83
2022-10-24T16:51:41.735Z,4.37
2022-10-24T16:54:32.521Z,8.67
2022-10-24T16:57:21.337Z,9.90
2022-10-24T17:00:14.176Z,11.83
2022-10-24T17:03:02.605Z,8.23
2022-10-24T17:05:52.807Z,6.47
2022-10-24T17:08:41.271Z,7.97
2022-10-24T17:11:44.777Z,6.43
2022-10-24T17:14:36.311Z,5.03
2022-10-24T17:17:24.787Z,11.70
2022-10-24T17:20:13.935Z,10.73
2022-10-24T17:23:06.431Z,10.43
2022-10-24T17:25:55.869Z,7.77
2022-10-24T17:28:45.480Z,6.63
2022-10-24T17:31:34.155Z,7.70
2022-10-24T17:34:23.431Z,5.80
2022-10-24T17:37:21.599Z,6.47
2022-10-24T17:40:16.787Z,6.37
2022-10-24T17:43:06.845Z,5.60
2022-10-24T17:45:57.048Z,8.13
2022-10-24T17:48:45.671Z,3.60
2022-10-24T17:51:37.475Z,5.03
2022-10-24T17:54:25.944Z,6.40
2022-10-24T17:57:16.009Z,3.97
2022-10-24T18:00:04.977Z,2.80
2022-10-24T18:02:54.299Z,3.43
2022-10-24T18:05:45.683Z,2.90
2022-10-24T18:08:35.397Z,1.83
2022-10-24T18:11:24.112Z,4.50
2022-10-24T18:14:14.557Z,3.17
2022-10-24T18:17:03.009Z,2.53
2022-10-24T18:19:51.560Z,1.73
2022-10-24T18:22:40.256Z,1.30
2022-10-24T18:25:29.576Z,3.97
2022-10-24T18:28:18.262Z,1.40
2022-10-24T18:31:09.830Z,1.97
2022-10-24T18:34:06.081Z,3.30
2022-10-24T18:36:57.420Z,2.70
2022-10-24T18:39:46.306Z,1.90
2022-10-24T18:42:39.193Z,4.10
2022-10-24T18:45:29.178Z,1.63
2022-10-24T18:48:20.656Z,2.03
2022-10-24T18:51:20.439Z,6.03
2022-10-24T18:54:14.903Z,3.10
2022-10-24T18:57:04.054Z,2.30
2022-10-24T18:59:53.177Z,2.23
2022-10-24T19:02:49.519Z,2.40
2022-10-24T19:05:44.150Z,2.33
2022-10-24T19:08:33.157Z,2.03
2022-10-24T19:11:24.239Z,2.33
2022-10-24T19:14:14.915Z,2.93
2022-10-24T19:17:03.714Z,2.00
2022-10-24T19:19:53.688Z,2.33
2022-10-24T19:22:43.854Z,1.60
2022-10-24T19:25:32.649Z,1.80
2022-10-24T19:28:21.390Z,1.73
2022-10-24T19:31:12.441Z,1.40
2022-10-24T19:34:01.391Z,1.73
2022-10-24T19:36:49.860Z,2.53
2022-10-24T19:39:39.765Z,1.47
2022-10-24T19:42:28.354Z,4.60
2022-10-24T19:45:19.277Z,2.17
2022-10-24T19:48:12.231Z,2.50
2022-10-24T19:51:03.278Z,1.87
2022-10-24T19:53:52.548Z,1.30
2022-10-24T19:56:42.350Z,2.50
2022-10-24T19:59:33.858Z,3.00
2022-10-24T20:02:22.867Z,2.07
2022-10-24T20:05:11.341Z,1.43
2022-10-24T20:08:00.035Z,2.90
2022-10-24T20:10:52.390Z,2.00
2022-10-24T20:13:42.541Z,2.33
2022-10-24T20:16:32.081Z,2.20
2022-10-24T20:19:20.903Z,1.50
2022-10-24T20:22:09.752Z,1.37
2022-10-24T20:24:58.325Z,3.10
2022-10-24T20:27:48.886Z,5.93
2022-10-24T20:30:41.634Z,1.50
2022-10-24T20:33:30.092Z,1.47
2022-10-24T20:36:20.624Z,1.57
2022-10-24T20:39:09.651Z,1.67
2022-10-24T20:41:58.144Z,1.30
2022-10-24T20:44:46.564Z,1.30
2022-10-24T20:47:36.669Z,1.50
2022-10-24T20:50:25.088Z,1.50
2022-10-24T20:53:13.658Z,1.43
2022-10-24T20:56:06.333Z,2.70
2022-10-24T20:58:56.041Z,1.27
2022-10-24T21:01:44.704Z,1.67
2022-10-24T21:04:34.571Z,1.77
2022-10-24T21:07:22.953Z,1.43
2022-10-24T21:10:11.396Z,2.80
2022-10-24T21:12:59.801Z,1.50
2022-10-24T21:15:48.358Z,3.00
2022-10-24T21:18:37.546Z,3.00
2022-10-24T21:21:27.915Z,5.03
2022-10-24T21:24:17.848Z,1.67
2022-10-24T21:27:06.313Z,3.23
2022-10-24T21:29:54.710Z,1.60
2022-10-24T21:32:43.174Z,2.07
2022-10-24T21:35:31.763Z,2.73
2022-10-24T21:38:21.504Z,1.70
2022-10-24T21:41:11.167Z,2.03
2022-10-24T21:43:59.634Z,2.67
2022-10-24T21:46:48.109Z,2.03
2022-10-24T21:49:36.576Z,1.67
2022-10-24T21:52:25.105Z,2.70
2022-10-24T21:55:14.912Z,2.23
2022-10-24T21:58:03.318Z,1.97
2022-10-24T22:00:51.763Z,6.40
2022-10-24T22:03:40.659Z,2.70
2022-10-24T22:06:31.074Z,3.30
2022-10-24T22:09:23.425Z,3.03
2022-10-24T22:12:13.254Z,3.83
2022-10-24T22:15:01.734Z,1.47
2022-10-24T22:17:50.507Z,1.50
2022-10-24T22:20:40.153Z,5.47
2022-10-24T22:23:29.162Z,1.80
2022-10-24T22:26:17.570Z,1.90
2022-10-24T22:29:08.725Z,3.23
2022-10-24T22:31:57.837Z,6.40
2022-10-24T22:34:46.756Z,2.40
2022-10-24T22:37:35.238Z,4.03
2022-10-24T22:40:26.784Z,2.23
2022-10-24T22:43:15.927Z,5.33
2022-10-24T22:46:14.770Z,4.03
2022-10-24T22:49:07.652Z,3.43
2022-10-24T22:51:56.636Z,3.70
2022-10-24T22:54:45.732Z,3.33
2022-10-24T22:57:37.051Z,2.70
2022-10-24T23:00:26.280Z,1.87
2022-10-24T23:03:23.362Z,2.27
2022-10-24T23:06:15.713Z,1.83
2022-10-24T23:09:04.642Z,1.60
2022-10-24T23:11:54.022Z,5.73
2022-10-24T23:14:43.112Z,4.50
2022-10-24T23:17:32.725Z,2.07
2022-10-24T23:20:29.542Z,4.10
2022-10-24T23:23:29.573Z,3.07
2022-10-24T23:26:27.135Z,2.83
2022-10-24T23:29:20.220Z,2.10
2022-10-24T23:32:13.848Z,2.57
2022-10-24T23:35:02.825Z,3.20
2022-10-24T23:37:54.115Z,2.53
2022-10-24T23:40:42.975Z,2.23
2022-10-24T23:43:32.040Z,6.30
2022-10-24T23:46:26.235Z,2.37
2022-10-24T23:49:24.087Z,7.57
2022-10-24T23:52:16.946Z,1.70
2022-10-24T23:55:09.653Z,5.20
2022-10-24T23:57:58.113Z,3.37
